Time;durP1;ratioP1;P1;durP2;ratioP2;P2;SDS_P1;SDS_P2;PMS_P1;PMS_P2;Temp;Humidity;BMP_temperature;BMP_pressure;BME280_temperature;BME280_humidity;BME280_pressure;Samples;Min_cycle;Max_cycle;Signal;HPM_P1;HPM_P2
2022/11/06 07:21:42;;;;;;;6.80;4.65;;;4.60;99.90;;;;;;4881763;29;20458;-78
2022/11/06 07:24:09;;;;;;;7.60;5.50;;;4.70;99.90;;;;;;4889006;29;20056;-76
2022/11/06 07:26:35;;;;;;;4.93;3.42;;;4.70;99.90;;;;;;4895585;29;20048;-77
2022/11/06 07:29:02;;;;;;;5.00;3.80;;;4.70;99.90;;;;;;4888815;29;20060;-79
2022/11/06 07:31:30;;;;;;;5.25;3.92;;;4.60;99.90;;;;;;4889399;29;20056;-79
2022/11/06 07:33:56;;;;;;;16.00;5.03;;;4.60;99.90;;;;;;4889046;29;20506;-79
2022/11/06 07:36:23;;;;;;;8.25;5.20;;;4.60;99.90;;;;;;4888311;29;20713;-79
2022/11/06 07:38:49;;;;;;;9.65;6.68;;;4.60;99.90;;;;;;4888479;29;20053;-79
2022/11/06 07:41:16;;;;;;;11.00;7.22;;;4.60;99.90;;;;;;4887014;29;20060;-79
2022/11/06 07:43:43;;;;;;;14.13;8.10;;;4.60;99.90;;;;;;4886242;29;20060;-78
2022/11/06 07:46:11;;;;;;;13.10;9.02;;;4.60;99.90;;;;;;4886370;29;20423;-80
2022/11/06 07:48:38;;;;;;;11.82;7.90;;;4.70;99.90;;;;;;4896067;29;20086;-79
2022/11/06 07:51:07;;;;;;;15.35;8.07;;;4.70;99.90;;;;;;4893242;29;20060;-78
2022/11/06 07:53:34;;;;;;;15.02;8.63;;;4.80;99.90;;;;;;4882054;29;20653;-77
2022/11/06 07:56:01;;;;;;;17.48;10.43;;;4.90;99.90;;;;;;4889464;29;20056;-78
2022/11/06 07:58:28;;;;;;;17.45;10.20;;;4.90;99.90;;;;;;4899424;29;20684;-77
2022/11/06 08:00:56;;;;;;;17.08;10.48;;;5.00;99.90;;;;;;4897317;29;20418;-77
2022/11/06 08:03:24;;;;;;;18.65;11.20;;;5.10;99.90;;;;;;4897704;29;20483;-78
2022/11/06 08:05:51;;;;;;;13.45;9.13;;;5.20;99.90;;;;;;4895615;29;20094;-79
2022/11/06 08:08:18;;;;;;;17.50;10.10;;;5.30;99.90;;;;;;4897546;29;20060;-77
2022/11/06 08:10:46;;;;;;;13.20;7.78;;;5.40;99.90;;;;;;4897399;29;20049;-77
2022/11/06 08:13:16;;;;;;;15.40;8.18;;;5.50;99.90;;;;;;4897421;29;20051;-77
2022/11/06 08:15:43;;;;;;;14.85;7.40;;;5.60;99.90;;;;;;4894739;29;20045;-77
2022/11/06 08:18:11;;;;;;;15.48;7.72;;;5.70;99.90;;;;;;4894525;29;20053;-77
2022/11/06 08:20:39;;;;;;;12.13;6.65;;;5.70;99.90;;;;;;4890331;29;20048;-77
2022/11/06 08:23:07;;;;;;;10.88;7.20;;;5.80;99.90;;;;;;4887649;29;20463;-77
2022/11/06 08:25:34;;;;;;;10.70;6.57;;;5.80;99.90;;;;;;4884181;29;20052;-76
2022/11/06 08:28:01;;;;;;;8.35;6.38;;;5.80;99.90;;;;;;4886034;29;20506;-78
2022/11/06 08:30:29;;;;;;;12.23;7.20;;;5.80;99.90;;;;;;4886240;29;20052;-78
2022/11/06 08:33:00;;;;;;;11.23;6.65;;;5.80;99.90;;;;;;4892764;29;20044;-77
2022/11/06 08:35:28;;;;;;;13.23;6.88;;;5.80;99.90;;;;;;4891964;29;20057;-77
2022/11/06 08:37:55;;;;;;;12.02;6.25;;;5.70;99.90;;;;;;4889314;29;20048;-77
2022/11/06 08:40:22;;;;;;;9.93;7.70;;;5.70;99.90;;;;;;4886832;29;20119;-77
2022/11/06 08:43:00;;;;;;;10.80;6.90;;;5.70;99.90;;;;;;4893949;29;20100;-78
2022/11/06 08:45:27;;;;;;;8.98;6.60;;;5.80;99.90;;;;;;4892438;29;20060;-78
2022/11/06 08:47:59;;;;;;;8.68;6.30;;;6.00;99.90;;;;;;4890279;29;20052;-77
2022/11/06 08:50:25;;;;;;;9.90;6.63;;;6.00;99.90;;;;;;4888594;29;20120;-78
2022/11/06 08:52:56;;;;;;;11.00;6.35;;;6.10;99.90;;;;;;4894719;29;20064;-77
2022/11/06 08:55:23;;;;;;;11.40;6.63;;;6.10;99.90;;;;;;4888356;29;20053;-79
2022/11/06 08:57:50;;;;;;;9.93;6.10;;;6.20;99.90;;;;;;4888821;29;20053;-80
2022/11/06 09:00:16;;;;;;;6.95;4.63;;;6.20;99.90;;;;;;4895695;29;20403;-79
2022/11/06 09:02:43;;;;;;;8.23;4.63;;;6.30;99.90;;;;;;4894115;29;20491;-79
2022/11/06 09:05:10;;;;;;;9.50;5.43;;;6.30;99.90;;;;;;4895060;29;20052;-78
2022/11/06 09:07:36;;;;;;;12.68;5.10;;;6.40;99.90;;;;;;4892999;29;20049;-79
2022/11/06 09:10:03;;;;;;;6.45;5.07;;;6.40;99.90;;;;;;4891348;29;20451;-80
2022/11/06 09:12:30;;;;;;;10.52;5.28;;;6.50;99.90;;;;;;4889956;29;20661;-79
2022/11/06 09:14:57;;;;;;;6.00;4.85;;;6.50;99.90;;;;;;4893268;29;20061;-79
2022/11/06 09:17:23;;;;;;;7.22;5.00;;;6.60;99.90;;;;;;4891663;29;20049;-79
2022/11/06 09:19:50;;;;;;;9.27;5.57;;;6.70;99.90;;;;;;4893038;29;20055;-79
2022/11/06 09:22:17;;;;;;;8.85;5.93;;;6.70;99.90;;;;;;4889983;29;20048;-79
2022/11/06 09:24:44;;;;;;;8.40;5.85;;;6.80;99.90;;;;;;4899652;29;20052;-79
2022/11/06 09:27:29;;;;;;;6.15;4.38;;;6.90;99.90;;;;;;4893889;29;20164;-79
2022/11/06 09:29:56;;;;;;;8.52;5.25;;;7.00;99.90;;;;;;4893529;29;20085;-80
2022/11/06 09:32:23;;;;;;;11.18;6.03;;;7.10;99.90;;;;;;4891947;29;20491;-80
2022/11/06 09:34:50;;;;;;;11.63;6.55;;;7.10;99.90;;;;;;4892674;29;20041;-79
2022/11/06 09:37:16;;;;;;;12.73;7.25;;;7.10;99.90;;;;;;4893424;29;20056;-80
2022/11/06 09:39:43;;;;;;;8.27;4.70;;;7.20;99.90;;;;;;4890872;29;20053;-80
2022/11/06 09:42:42;;;;;;;7.68;4.20;;;7.20;99.90;;;;;;4894146;29;20048;-80
2022/11/06 09:45:16;;;;;;;7.03;4.38;;;7.30;99.90;;;;;;4893757;29;20048;-80
2022/11/06 09:47:48;;;;;;;7.22;3.85;;;7.30;99.90;;;;;;4893942;29;20435;-78
2022/11/06 09:50:22;;;;;;;4.68;3.63;;;7.40;99.90;;;;;;4891096;29;20052;-79
2022/11/06 09:52:53;;;;;;;6.50;3.60;;;7.40;99.90;;;;;;4892265;29;20062;-79
2022/11/06 09:55:22;;;;;;;5.97;3.60;;;7.50;99.90;;;;;;4890583;29;20546;-78
2022/11/06 09:57:59;;;;;;;6.70;3.47;;;7.50;99.90;;;;;;4893676;29;20132;-78
2022/11/06 10:00:26;;;;;;;6.93;3.50;;;7.50;99.90;;;;;;4894041;29;20060;-78
2022/11/06 10:03:04;;;;;;;6.22;3.97;;;7.60;99.90;;;;;;4898498;29;20053;-78
2022/11/06 10:05:33;;;;;;;4.78;3.17;;;7.60;99.90;;;;;;4894952;29;20060;-78
2022/11/06 10:08:13;;;;;;;7.80;3.17;;;7.80;99.90;;;;;;4895324;29;20051;-79
2022/11/06 10:10:48;;;;;;;7.57;3.30;;;7.90;99.90;;;;;;4895978;29;20052;-79
2022/11/06 10:13:17;;;;;;;7.75;3.75;;;7.90;99.90;;;;;;4893995;29;20537;-78
2022/11/06 10:16:03;;;;;;;5.20;3.92;;;8.00;99.90;;;;;;4897415;29;20055;-79
2022/11/06 10:18:30;;;;;;;5.53;4.03;;;8.00;99.90;;;;;;4895752;29;20059;-78
2022/11/06 10:21:03;;;;;;;6.32;4.00;;;8.10;99.90;;;;;;4892067;29;20048;-80
2022/11/06 10:23:57;;;;;;;6.30;4.45;;;8.10;99.90;;;;;;4891571;29;20077;-79
2022/11/06 10:26:43;;;;;;;6.32;3.88;;;8.10;99.90;;;;;;4888535;29;20127;-78
2022/11/06 10:29:10;;;;;;;7.95;4.40;;;8.10;99.90;;;;;;4893487;29;20075;-79
2022/11/06 10:32:02;;;;;;;4.70;3.83;;;8.10;99.90;;;;;;4892850;29;20138;-78
2022/11/06 10:34:46;;;;;;;6.63;3.97;;;8.10;99.90;;;;;;4890164;29;20063;-79
2022/11/06 10:37:20;;;;;;;11.48;5.28;;;8.20;99.90;;;;;;4894156;29;20122;-79
2022/11/06 10:39:48;;;;;;;9.77;5.53;;;8.10;99.90;;;;;;4890912;29;20055;-78
2022/11/06 10:42:19;;;;;;;6.57;4.38;;;8.10;99.90;;;;;;4888998;29;20052;-78
2022/11/06 10:45:00;;;;;;;10.27;5.40;;;8.20;99.90;;;;;;4886030;29;20055;-81
2022/11/06 10:47:43;;;;;;;8.57;4.97;;;8.20;99.90;;;;;;4889971;29;20064;-77
2022/11/06 10:50:13;;;;;;;7.43;4.65;;;8.30;99.90;;;;;;4892398;29;20053;-79
2022/11/06 10:53:19;;;;;;;6.47;4.40;;;8.30;99.90;;;;;;4889611;29;20060;-81
2022/11/06 10:56:09;;;;;;;9.82;5.53;;;8.30;99.90;;;;;;4894252;29;20059;-78
2022/11/06 10:58:37;;;;;;;8.85;4.78;;;8.40;99.90;;;;;;4890938;29;20053;-78
2022/11/06 11:01:05;;;;;;;7.53;5.32;;;8.40;99.90;;;;;;4892747;29;20052;-78
2022/11/06 11:03:35;;;;;;;10.68;5.72;;;8.50;99.90;;;;;;4895788;29;20104;-78
2022/11/06 11:06:03;;;;;;;7.25;4.93;;;8.50;99.90;;;;;;4890984;29;20455;-78
2022/11/06 11:08:31;;;;;;;9.93;5.68;;;8.60;99.90;;;;;;4887126;29;20106;-78
2022/11/06 11:11:26;;;;;;;9.07;5.97;;;8.60;99.90;;;;;;4895358;29;20052;-78
2022/11/06 11:13:55;;;;;;;9.00;6.22;;;8.70;99.90;;;;;;4889607;29;20508;-79
2022/11/06 11:16:32;;;;;;;10.57;6.37;;;8.70;99.90;;;;;;4892404;29;20045;-79
2022/11/06 11:19:32;;;;;;;13.63;6.82;;;8.70;99.90;;;;;;4892518;29;20054;-78
2022/11/06 11:22:20;;;;;;;7.05;5.43;;;8.80;99.90;;;;;;4892472;29;20053;-79
2022/11/06 11:25:05;;;;;;;9.25;5.88;;;8.70;99.90;;;;;;4896975;29;20052;-77
2022/11/06 11:27:44;;;;;;;9.82;6.25;;;8.70;99.90;;;;;;4896393;29;20067;-78
2022/11/06 11:30:21;;;;;;;8.32;5.68;;;8.70;99.90;;;;;;4893308;29;20048;-78
2022/11/06 11:32:49;;;;;;;8.82;5.70;;;8.80;99.90;;;;;;4892556;29;20056;-79
2022/11/06 11:35:19;;;;;;;8.50;5.22;;;8.80;99.90;;;;;;4894746;29;20055;-78
2022/11/06 11:37:46;;;;;;;10.00;5.78;;;8.90;99.90;;;;;;4894245;29;20060;-78
2022/11/06 11:40:39;;;;;;;7.82;5.40;;;9.00;99.90;;;;;;4894993;29;20051;-78
2022/11/06 11:43:18;;;;;;;6.43;5.15;;;9.00;99.90;;;;;;4892251;29;20080;-78
2022/11/06 11:46:08;;;;;;;7.95;4.80;;;9.10;99.90;;;;;;4897571;29;20147;-79
2022/11/06 11:48:54;;;;;;;6.60;5.00;;;9.10;99.90;;;;;;4905720;29;20141;-78
2022/11/06 11:51:21;;;;;;;8.98;5.47;;;9.20;99.90;;;;;;4901708;29;20091;-77
2022/11/06 11:53:47;;;;;;;8.70;5.30;;;9.20;99.90;;;;;;4902158;29;20060;-78
2022/11/06 11:56:20;;;;;;;8.82;5.07;;;9.20;99.90;;;;;;4902925;29;20055;-78
2022/11/06 11:59:19;;;;;;;8.25;5.15;;;9.20;99.90;;;;;;4885784;29;20060;-77
2022/11/06 12:01:47;;;;;;;7.70;4.70;;;9.30;99.90;;;;;;4899891;29;20501;-78
2022/11/06 12:04:25;;;;;;;9.23;4.85;;;9.40;99.90;;;;;;4902168;29;20076;-78
2022/11/06 12:06:56;;;;;;;7.03;5.03;;;9.50;99.90;;;;;;4894502;29;20057;-77
2022/11/06 12:09:25;;;;;;;7.63;5.03;;;9.60;99.90;;;;;;4887418;29;20050;-79
2022/11/06 12:11:55;;;;;;;9.00;5.05;;;9.60;99.90;;;;;;4882946;29;20053;-78
2022/11/06 12:14:26;;;;;;;5.25;4.30;;;9.70;99.90;;;;;;4897957;29;20112;-78
2022/11/06 12:17:01;;;;;;;6.20;4.53;;;9.70;99.90;;;;;;4886358;29;20113;-78
2022/11/06 12:19:31;;;;;;;7.55;4.85;;;9.80;99.90;;;;;;4885458;29;20467;-77
2022/11/06 12:22:03;;;;;;;8.00;4.72;;;9.80;99.90;;;;;;4885130;29;20068;-79
2022/11/06 12:24:47;;;;;;;5.78;4.72;;;9.80;99.90;;;;;;4887249;29;20556;-79
2022/11/06 12:27:35;;;;;;;8.05;5.13;;;9.80;99.90;;;;;;4888194;29;20052;-79
2022/11/06 12:30:11;;;;;;;5.95;4.93;;;9.80;99.90;;;;;;4894748;29;20637;-79
2022/11/06 12:33:09;;;;;;;9.50;4.75;;;9.80;99.90;;;;;;4889711;29;20120;-80
2022/11/06 12:35:57;;;;;;;7.30;4.60;;;9.70;99.90;;;;;;4888170;29;20075;-80
2022/11/06 12:38:33;;;;;;;9.60;5.10;;;9.70;99.90;;;;;;4889628;29;20060;-78
2022/11/06 12:41:24;;;;;;;6.82;4.93;;;9.70;99.90;;;;;;4890264;29;20418;-77
2022/11/06 12:43:51;;;;;;;5.93;4.10;;;9.60;99.90;;;;;;4885324;29;20052;-79
2022/11/06 12:46:38;;;;;;;6.57;4.85;;;9.60;99.90;;;;;;4886329;29;20067;-77
2022/11/06 12:49:24;;;;;;;6.05;4.75;;;9.70;99.90;;;;;;4890657;29;20052;-77
2022/11/06 12:52:09;;;;;;;8.25;5.07;;;9.70;99.90;;;;;;4889305;29;20056;-80
2022/11/06 12:55:03;;;;;;;5.65;4.05;;;9.70;99.90;;;;;;4898185;29;20052;-80
2022/11/06 12:57:56;;;;;;;7.57;4.63;;;9.70;99.90;;;;;;4889764;29;20059;-79
2022/11/06 13:00:30;;;;;;;7.03;4.95;;;9.70;99.90;;;;;;4889245;29;20052;-79
2022/11/06 13:03:27;;;;;;;7.15;5.35;;;9.70;99.90;;;;;;4901067;29;20112;-79
2022/11/06 13:06:10;;;;;;;8.00;4.95;;;9.60;99.90;;;;;;4888034;29;20060;-80
2022/11/06 13:09:05;;;;;;;5.50;4.15;;;9.70;99.90;;;;;;4887114;29;20158;-80
2022/11/06 13:12:05;;;;;;;8.93;4.95;;;9.70;99.90;;;;;;4885931;29;20060;-79
2022/11/06 13:14:49;;;;;;;11.15;4.75;;;9.70;99.90;;;;;;4886114;29;20109;-79
2022/11/06 13:17:36;;;;;;;5.70;3.90;;;9.80;99.90;;;;;;4883282;29;20060;-79
2022/11/06 13:20:21;;;;;;;5.72;4.13;;;9.90;99.90;;;;;;4897640;29;20055;-79
2022/11/06 13:23:03;;;;;;;7.07;4.75;;;10.00;99.90;;;;;;4893332;29;20075;-79
2022/11/06 13:26:07;;;;;;;7.10;5.05;;;10.00;99.90;;;;;;4888317;29;20068;-80
2022/11/06 13:28:40;;;;;;;10.70;4.78;;;10.10;99.90;;;;;;4894316;29;20049;-79
2022/11/06 13:31:09;;;;;;;9.32;4.63;;;10.10;99.90;;;;;;4892196;29;20060;-80
2022/11/06 13:33:50;;;;;;;6.77;4.10;;;10.10;99.90;;;;;;4888320;29;20056;-80
2022/11/06 13:36:17;;;;;;;;;;;10.10;99.90;;;;;;4889347;29;20286;-80
2022/11/06 13:38:53;;;;;;;6.20;4.53;;;10.10;99.90;;;;;;4890402;29;19931;-80
2022/11/06 13:41:29;;;;;;;7.82;4.13;;;10.10;99.90;;;;;;4890301;29;20057;-79
2022/11/06 13:44:01;;;;;;;6.38;4.60;;;10.10;99.90;;;;;;4896311;29;20062;-79
2022/11/06 13:46:58;;;;;;;5.80;3.80;;;10.10;99.90;;;;;;4891973;29;20057;-80
2022/11/06 13:49:37;;;;;;;7.70;4.05;;;10.00;99.90;;;;;;4891903;29;20060;-79
2022/11/06 13:52:41;;;;;;;8.93;4.80;;;10.00;99.90;;;;;;4892806;29;20052;-79
2022/11/06 13:55:34;;;;;;;5.70;4.22;;;10.00;99.90;;;;;;4890089;29;20072;-79
2022/11/06 13:58:36;;;;;;;6.93;4.40;;;10.00;99.90;;;;;;4904956;29;20587;-79
2022/11/06 14:01:24;;;;;;;6.25;4.32;;;10.00;99.90;;;;;;4891933;29;20045;-80
2022/11/06 14:04:12;;;;;;;6.63;4.22;;;9.90;99.90;;;;;;4891659;29;20091;-79
2022/11/06 14:06:40;;;;;;;5.32;4.30;;;9.90;99.90;;;;;;4896226;29;20076;-80
2022/11/06 14:09:17;;;;;;;7.75;4.38;;;9.90;99.90;;;;;;4895943;29;20059;-79
2022/11/06 14:11:51;;;;;;;9.32;4.82;;;9.90;99.90;;;;;;4888857;29;20053;-79
2022/11/06 14:14:20;;;;;;;7.50;4.55;;;9.90;99.90;;;;;;4888445;29;20426;-79
2022/11/06 14:17:12;;;;;;;8.13;5.05;;;9.90;99.90;;;;;;4887772;29;20052;-80
2022/11/06 14:19:41;;;;;;;7.32;4.78;;;9.90;99.90;;;;;;4889325;29;20052;-79
2022/11/06 14:22:27;;;;;;;8.57;5.32;;;9.80;99.90;;;;;;4894586;29;20090;-80
2022/11/06 14:24:54;;;;;;;10.18;5.57;;;9.80;99.90;;;;;;4885825;29;20056;-79
2022/11/06 14:27:27;;;;;;;9.40;4.95;;;9.80;99.90;;;;;;4885426;29;20060;-80
2022/11/06 14:30:00;;;;;;;9.25;4.65;;;9.80;99.90;;;;;;4884462;29;20135;-79
2022/11/06 14:32:29;;;;;;;8.75;5.30;;;9.90;99.90;;;;;;4895088;29;20045;-79
2022/11/06 14:35:17;;;;;;;13.52;5.97;;;10.00;99.90;;;;;;4891803;29;20426;-79
2022/11/06 14:37:47;;;;;;;7.82;5.10;;;10.00;99.90;;;;;;4891495;29;20049;-82
2022/11/06 14:40:14;;;;;;;9.35;5.28;;;10.00;99.90;;;;;;4887172;29;20057;-79
2022/11/06 14:42:44;;;;;;;6.78;5.03;;;10.00;99.90;;;;;;4891647;29;20057;-80
2022/11/06 14:45:21;;;;;;;9.15;5.32;;;10.00;99.90;;;;;;4890782;29;20056;-80
2022/11/06 14:47:54;;;;;;;6.75;5.30;;;10.00;99.90;;;;;;4892127;29;20072;-80
2022/11/06 14:50:36;;;;;;;9.38;5.38;;;10.00;99.90;;;;;;4898089;29;20053;-79
2022/11/06 14:53:16;;;;;;;7.45;5.07;;;10.00;99.90;;;;;;4887037;29;20143;-80
2022/11/06 14:55:55;;;;;;;9.60;5.40;;;10.00;99.90;;;;;;4892818;29;20048;-79
2022/11/06 14:58:25;;;;;;;7.90;4.38;;;10.00;99.90;;;;;;4896211;29;20045;-79
2022/11/06 15:01:14;;;;;;;7.88;5.20;;;10.00;99.90;;;;;;4892907;29;20049;-79
2022/11/06 15:03:55;;;;;;;8.68;4.78;;;10.00;99.90;;;;;;4890947;29;20061;-79
2022/11/06 15:06:28;;;;;;;8.38;4.68;;;9.90;99.90;;;;;;4892196;29;20059;-78
2022/11/06 15:08:56;;;;;;;8.52;5.28;;;9.90;99.90;;;;;;4897379;29;20056;-79
2022/11/06 15:11:29;;;;;;;9.90;5.22;;;9.90;99.90;;;;;;4893050;29;20063;-79
2022/11/06 15:13:58;;;;;;;9.45;5.10;;;9.90;99.90;;;;;;4909852;29;20051;-80
2022/11/06 15:16:39;;;;;;;8.15;5.82;;;9.80;99.90;;;;;;4893485;29;20053;-80
2022/11/06 15:19:12;;;;;;;8.25;5.68;;;9.80;99.90;;;;;;4894322;29;20060;-80
2022/11/06 15:21:46;;;;;;;9.10;5.97;;;9.80;99.90;;;;;;4893872;29;20695;-79
2022/11/06 15:24:25;;;;;;;9.25;6.30;;;9.70;99.90;;;;;;4894208;29;20055;-79
2022/11/06 15:26:55;;;;;;;8.57;6.25;;;9.70;99.90;;;;;;4896050;29;20139;-79
2022/11/06 15:29:30;;;;;;;10.80;6.13;;;9.70;99.90;;;;;;4896241;29;20057;-79
2022/11/06 15:32:24;;;;;;;7.97;6.20;;;9.70;99.90;;;;;;4893738;29;20061;-80
2022/11/06 15:35:16;;;;;;;13.45;8.25;;;9.70;99.90;;;;;;4898534;29;20058;-80
2022/11/06 15:37:47;;;;;;;20.13;10.10;;;9.60;99.90;;;;;;4900288;29;20049;-81
2022/11/06 15:40:30;;;;;;;22.73;12.75;;;9.60;99.90;;;;;;4886428;29;20411;-80
2022/11/06 15:43:04;;;;;;;16.10;10.75;;;9.60;99.90;;;;;;4895699;29;20422;-80
2022/11/06 15:45:31;;;;;;;12.50;9.00;;;9.60;99.90;;;;;;4900223;29;20068;-80
2022/11/06 15:47:59;;;;;;;8.50;6.40;;;9.60;99.90;;;;;;4899765;29;20067;-80
2022/11/06 15:50:27;;;;;;;10.00;6.03;;;9.50;99.90;;;;;;4884708;29;20057;-80
2022/11/06 15:53:15;;;;;;;9.32;6.05;;;9.50;99.90;;;;;;4886572;29;20105;-79
2022/11/06 15:55:47;;;;;;;10.57;6.47;;;9.50;99.90;;;;;;4900217;29;20049;-79
2022/11/06 15:58:16;;;;;;;9.27;6.35;;;9.50;99.90;;;;;;4906059;29;20059;-80
2022/11/06 16:00:44;;;;;;;9.48;5.95;;;9.40;99.90;;;;;;4912880;29;20049;-79
2022/11/06 16:03:23;;;;;;;9.75;5.15;;;9.40;99.90;;;;;;4912672;29;20051;-80
2022/11/06 16:05:51;;;;;;;7.68;5.65;;;9.40;99.90;;;;;;4911406;29;20053;-78
2022/11/06 16:08:20;;;;;;;12.25;5.80;;;9.40;99.90;;;;;;4889485;29;20109;-79
2022/11/06 16:10:47;;;;;;;9.43;5.57;;;9.40;99.90;;;;;;4893151;29;20052;-79
2022/11/06 16:13:19;;;;;;;14.27;12.43;;;9.30;99.90;;;;;;4885396;29;20522;-79
2022/11/06 16:15:51;;;;;;;13.20;11.00;;;9.30;99.90;;;;;;4893237;29;20056;-79
2022/11/06 16:18:32;;;;;;;10.27;7.55;;;9.30;99.90;;;;;;4890077;29;20418;-80
2022/11/06 16:21:00;;;;;;;10.27;7.10;;;9.30;99.90;;;;;;4890776;29;20199;-79
2022/11/06 16:23:36;;;;;;;13.85;9.05;;;9.30;99.90;;;;;;4894983;29;20525;-79
2022/11/06 16:26:12;;;;;;;14.48;10.25;;;9.30;99.90;;;;;;4895558;29;20053;-78
2022/11/06 16:28:44;;;;;;;13.13;10.35;;;9.20;99.90;;;;;;4892326;29;20064;-79
2022/11/06 16:31:16;;;;;;;16.48;9.00;;;9.20;99.90;;;;;;4895815;29;20052;-79
2022/11/06 16:34:19;;;;;;;14.98;9.30;;;9.20;99.90;;;;;;4891810;29;20426;-79
2022/11/06 16:37:28;;;;;;;12.82;7.93;;;9.10;99.90;;;;;;4888979;29;20089;-80
2022/11/06 16:39:58;;;;;;;11.38;7.38;;;9.10;99.90;;;;;;4892819;29;20132;-79
2022/11/06 16:42:34;;;;;;;7.32;5.63;;;9.00;99.90;;;;;;4886310;29;20481;-78
2022/11/06 16:45:15;;;;;;;10.60;5.68;;;9.00;99.90;;;;;;4886978;29;20060;-78
2022/11/06 16:47:41;;;;;;;10.25;6.15;;;9.00;99.90;;;;;;4894265;29;20048;-78
2022/11/06 16:50:44;;;;;;;6.35;4.90;;;9.00;99.90;;;;;;4893882;29;20063;-79
2022/11/06 16:53:16;;;;;;;3.50;2.45;;;9.00;99.90;;;;;;4869844;29;20045;-80
2022/11/06 16:55:51;;;;;;;4.82;3.10;;;9.00;99.90;;;;;;4892175;29;20045;-79
2022/11/06 16:58:17;;;;;;;5.90;3.78;;;9.10;99.90;;;;;;4894917;29;20056;-78
2022/11/06 17:00:44;;;;;;;5.85;2.55;;;9.20;99.90;;;;;;4883228;29;20059;-77
2022/11/06 17:03:21;;;;;;;2.47;1.60;;;9.20;99.90;;;;;;4894582;29;20088;-78
2022/11/06 17:06:20;;;;;;;3.55;2.40;;;9.40;99.90;;;;;;4893383;29;20060;-77
2022/11/06 17:09:00;;;;;;;1.90;1.40;;;9.40;99.90;;;;;;4878918;29;20049;-77
2022/11/06 17:11:34;;;;;;;4.03;1.90;;;9.50;99.90;;;;;;4879373;29;20100;-77
2022/11/06 17:14:16;;;;;;;2.58;1.80;;;9.60;99.90;;;;;;4889531;29;20052;-77
2022/11/06 17:16:57;;;;;;;2.95;1.98;;;9.70;99.90;;;;;;4883386;29;20427;-79
2022/11/06 17:19:25;;;;;;;5.80;3.60;;;9.70;99.90;;;;;;4891298;29;20650;-78
2022/11/06 17:21:52;;;;;;;4.93;3.95;;;9.80;99.90;;;;;;4890734;29;20493;-78
2022/11/06 17:24:19;;;;;;;7.50;5.65;;;9.90;99.90;;;;;;4882138;29;20053;-79
2022/11/06 17:27:05;;;;;;;3.28;1.75;;;10.00;99.90;;;;;;4885817;29;20057;-78
2022/11/06 17:29:34;;;;;;;3.13;2.38;;;10.00;99.90;;;;;;4888161;29;20053;-78
2022/11/06 17:32:01;;;;;;;6.03;4.57;;;10.10;99.90;;;;;;4892353;29;20144;-78
2022/11/06 17:34:28;;;;;;;3.78;2.70;;;10.10;99.90;;;;;;4894965;29;20060;-78
2022/11/06 17:36:55;;;;;;;3.83;2.75;;;10.10;99.90;;;;;;4894367;29;20053;-78
2022/11/06 17:39:22;;;;;;;4.35;2.60;;;10.00;99.90;;;;;;4892847;29;20381;-78
2022/11/06 17:41:48;;;;;;;3.95;2.72;;;10.10;99.90;;;;;;4889501;29;20063;-77
2022/11/06 17:44:16;;;;;;;5.75;3.42;;;10.00;99.90;;;;;;4889522;29;20053;-78
2022/11/06 17:46:44;;;;;;;5.40;3.03;;;10.00;99.90;;;;;;4888344;29;20399;-77
2022/11/06 17:49:13;;;;;;;3.50;2.78;;;10.00;99.90;;;;;;4890489;29;20064;-77
2022/11/06 17:52:00;;;;;;;4.47;3.22;;;10.10;99.90;;;;;;4893982;29;20055;-78
2022/11/06 17:54:35;;;;;;;6.05;4.10;;;10.00;99.90;;;;;;4891812;29;20049;-77
2022/11/06 17:57:05;;;;;;;5.82;2.70;;;10.00;99.90;;;;;;4891825;29;20045;-77
2022/11/06 17:59:33;;;;;;;3.35;2.55;;;10.00;99.90;;;;;;4892530;29;20410;-77
2022/11/06 18:02:00;;;;;;;2.90;2.22;;;10.10;99.90;;;;;;4890956;29;20057;-77
2022/11/06 18:04:33;;;;;;;2.20;1.92;;;10.10;99.90;;;;;;4897752;29;20056;-77
2022/11/06 18:07:00;;;;;;;2.10;1.77;;;10.10;99.90;;;;;;4894734;29;20061;-77
2022/11/06 18:09:27;;;;;;;2.38;1.67;;;10.20;99.90;;;;;;4895093;29;20110;-77
2022/11/06 18:11:54;;;;;;;3.42;2.70;;;10.20;99.90;;;;;;4896100;29;20049;-77
2022/11/06 18:14:22;;;;;;;1.98;1.52;;;10.30;99.90;;;;;;4885245;29;20415;-77
2022/11/06 18:16:49;;;;;;;1.67;1.25;;;10.30;99.90;;;;;;4884458;29;20056;-77
2022/11/06 18:19:18;;;;;;;3.20;1.13;;;10.30;99.90;;;;;;4889815;29;20055;-78
2022/11/06 18:21:45;;;;;;;3.92;1.60;;;10.40;99.90;;;;;;4898592;29;20143;-77
2022/11/06 18:24:12;;;;;;;1.77;1.20;;;10.50;99.90;;;;;;4899524;29;20763;-78
2022/11/06 18:26:39;;;;;;;1.17;1.08;;;10.60;99.90;;;;;;4896928;29;20060;-78
2022/11/06 18:29:07;;;;;;;1.80;1.05;;;10.60;99.90;;;;;;4892198;29;20053;-77
2022/11/06 18:31:34;;;;;;;1.70;1.40;;;10.60;99.90;;;;;;4888060;29;20053;-77
2022/11/06 18:34:01;;;;;;;2.17;1.45;;;10.60;99.90;;;;;;4883506;29;20068;-78
2022/11/06 18:36:27;;;;;;;4.18;1.50;;;10.70;99.90;;;;;;4887249;29;20091;-77
2022/11/06 18:38:54;;;;;;;4.40;1.50;;;10.70;99.90;;;;;;4894397;29;20045;-78
2022/11/06 18:41:21;;;;;;;3.13;1.60;;;10.70;99.90;;;;;;4891433;29;20057;-79
2022/11/06 18:43:48;;;;;;;2.53;1.45;;;10.70;99.90;;;;;;4886826;29;20059;-79
2022/11/06 18:46:18;;;;;;;2.92;1.98;;;10.70;99.90;;;;;;4888250;29;20060;-79
2022/11/06 18:48:45;;;;;;;1.85;1.45;;;10.70;99.90;;;;;;4887577;29;20057;-79
2022/11/06 18:51:17;;;;;;;2.72;1.45;;;10.70;99.90;;;;;;4887836;29;20056;-78
2022/11/06 18:54:03;;;;;;;2.50;1.52;;;10.70;99.90;;;;;;4893387;29;20049;-78
2022/11/06 18:56:30;;;;;;;2.15;1.48;;;10.70;99.90;;;;;;4894779;29;20399;-79
2022/11/06 18:58:58;;;;;;;2.03;1.80;;;10.70;99.90;;;;;;4893627;29;20450;-78
2022/11/06 19:01:24;;;;;;;1.73;1.58;;;10.70;99.90;;;;;;4892816;29;20467;-78
2022/11/06 19:03:51;;;;;;;4.72;1.70;;;10.70;99.90;;;;;;4892885;29;20094;-78
2022/11/06 19:06:19;;;;;;;4.88;2.55;;;10.70;99.90;;;;;;4892664;29;20056;-79
2022/11/06 19:08:47;;;;;;;4.38;1.90;;;10.70;99.90;;;;;;4891340;29;20049;-79
2022/11/06 19:11:16;;;;;;;2.53;1.92;;;10.70;99.90;;;;;;4892237;29;20486;-79
2022/11/06 19:13:43;;;;;;;2.70;1.30;;;10.70;99.90;;;;;;4889479;29;20064;-79
2022/11/06 19:16:15;;;;;;;3.92;1.90;;;10.70;99.90;;;;;;4889538;29;20546;-78
2022/11/06 19:18:41;;;;;;;7.65;3.33;;;10.70;99.90;;;;;;4888611;29;20060;-78
2022/11/06 19:21:10;;;;;;;4.43;2.22;;;10.80;99.90;;;;;;4887427;29;20056;-79
2022/11/06 19:23:39;;;;;;;3.47;1.80;;;10.80;99.90;;;;;;4887761;29;20060;-78
2022/11/06 19:26:09;;;;;;;4.28;1.10;;;10.80;99.90;;;;;;4895810;29;20061;-78
2022/11/06 19:28:56;;;;;;;2.15;1.23;;;10.80;99.90;;;;;;4897813;29;20060;-79
2022/11/06 19:31:27;;;;;;;3.05;1.15;;;10.90;99.90;;;;;;4896608;29;20056;-79
2022/11/06 19:33:55;;;;;;;2.85;0.80;;;10.90;99.90;;;;;;4897145;29;20088;-78
2022/11/06 19:36:23;;;;;;;2.17;1.17;;;11.00;99.90;;;;;;4898070;29;20056;-78
2022/11/06 19:38:50;;;;;;;0.90;0.80;;;11.00;99.90;;;;;;4898532;29;20053;-79
2022/11/06 19:41:17;;;;;;;2.90;1.25;;;11.10;99.90;;;;;;4899311;29;20060;-79
2022/11/06 19:43:43;;;;;;;1.77;1.13;;;11.10;99.90;;;;;;4902070;29;20052;-79
2022/11/06 19:46:10;;;;;;;1.20;0.95;;;11.10;99.90;;;;;;4900412;29;20056;-79
2022/11/06 19:48:37;;;;;;;2.72;1.00;;;11.10;99.90;;;;;;4882284;29;20057;-79
2022/11/06 19:51:09;;;;;;;1.30;1.05;;;11.10;99.90;;;;;;4881975;29;20423;-79
2022/11/06 19:53:36;;;;;;;3.47;0.98;;;11.10;99.90;;;;;;4895443;29;20056;-78
2022/11/06 19:56:05;;;;;;;0.90;0.80;;;11.10;99.90;;;;;;4897834;29;20044;-79
2022/11/06 19:58:31;;;;;;;0.90;0.80;;;11.10;99.90;;;;;;4890153;29;20422;-78
2022/11/06 20:00:59;;;;;;;1.38;0.90;;;11.20;99.90;;;;;;4893331;29;20053;-78
2022/11/06 20:03:25;;;;;;;6.00;1.45;;;11.20;99.90;;;;;;4885190;29;20053;-79
2022/11/06 20:05:52;;;;;;;1.80;1.50;;;11.20;99.90;;;;;;4893069;29;20057;-78
2022/11/06 20:08:19;;;;;;;2.83;1.45;;;11.20;99.90;;;;;;4885986;29;20057;-79
2022/11/06 20:10:46;;;;;;;4.32;1.30;;;11.20;99.90;;;;;;4886569;29;20415;-79
2022/11/06 20:13:12;;;;;;;1.52;0.88;;;11.10;99.90;;;;;;4896673;29;20515;-79
2022/11/06 20:15:40;;;;;;;1.75;1.20;;;11.20;99.90;;;;;;4887185;29;20056;-79
2022/11/06 20:18:06;;;;;;;1.20;0.90;;;11.20;99.90;;;;;;4889169;29;20045;-79
2022/11/06 20:20:33;;;;;;;1.73;1.17;;;11.20;99.90;;;;;;4892609;29;20045;-79
2022/11/06 20:23:02;;;;;;;2.00;0.80;;;11.30;99.90;;;;;;4887668;29;20084;-79
2022/11/06 20:25:29;;;;;;;2.50;1.20;;;11.30;99.90;;;;;;4888614;29;20081;-78
2022/11/06 20:27:56;;;;;;;1.85;1.13;;;11.30;99.90;;;;;;4889707;29;20059;-79
2022/11/06 20:30:22;;;;;;;1.27;0.90;;;11.40;99.90;;;;;;4890421;29;20056;-79
2022/11/06 20:32:49;;;;;;;1.00;0.90;;;11.40;99.90;;;;;;4892826;29;20130;-80
2022/11/06 20:35:18;;;;;;;1.40;1.02;;;11.40;99.90;;;;;;4891989;29;20053;-79
2022/11/06 20:37:44;;;;;;;2.15;1.10;;;11.40;99.90;;;;;;4894433;29;20056;-79
2022/11/06 20:40:11;;;;;;;1.70;1.00;;;11.40;99.90;;;;;;4893283;29;20120;-79
2022/11/06 20:42:38;;;;;;;2.03;1.35;;;11.40;99.90;;;;;;4884516;29;20052;-79
2022/11/06 20:45:06;;;;;;;2.35;1.55;;;11.50;99.90;;;;;;4895792;29;20049;-79